sensor_id;sensor_type;location;lat;lon;timestamp;P1;durP1;ratioP1;P2;durP2;ratioP2
25467;SDS011;13384;24.794;110.498;2022-09-09T00:05:04;5.30;;;4.80;;
25467;SDS011;13384;24.794;110.498;2022-09-09T00:07:52;5.57;;;5.03;;
25467;SDS011;13384;24.794;110.498;2022-09-09T00:10:31;5.75;;;5.07;;
25467;SDS011;13384;24.794;110.498;2022-09-09T00:13:45;5.33;;;4.83;;
25467;SDS011;13384;24.794;110.498;2022-09-09T00:16:23;5.07;;;4.50;;
25467;SDS011;13384;24.794;110.498;2022-09-09T00:24:49;4.68;;;4.25;;
25467;SDS011;13384;24.794;110.498;2022-09-09T00:30:15;4.80;;;4.40;;
25467;SDS011;13384;24.794;110.498;2022-09-09T00:32:58;5.47;;;4.97;;
25467;SDS011;13384;24.794;110.498;2022-09-09T00:35:53;5.00;;;4.22;;
25467;SDS011;13384;24.794;110.498;2022-09-09T00:47:06;4.85;;;4.43;;
25467;SDS011;13384;24.794;110.498;2022-09-09T00:50:01;5.47;;;4.95;;
25467;SDS011;13384;24.794;110.498;2022-09-09T00:58:57;4.97;;;4.38;;
25467;SDS011;13384;24.794;110.498;2022-09-09T01:01:55;4.68;;;4.28;;
25467;SDS011;13384;24.794;110.498;2022-09-09T01:04:29;4.53;;;4.13;;
25467;SDS011;13384;24.794;110.498;2022-09-09T01:07:12;5.43;;;4.78;;
25467;SDS011;13384;24.794;110.498;2022-09-09T01:17:58;6.57;;;5.95;;
25467;SDS011;13384;24.794;110.498;2022-09-09T01:26:41;5.28;;;4.75;;
25467;SDS011;13384;24.794;110.498;2022-09-09T01:29:25;7.80;;;5.90;;
25467;SDS011;13384;24.794;110.498;2022-09-09T01:35:03;6.35;;;5.70;;
25467;SDS011;13384;24.794;110.498;2022-09-09T01:40:07;7.95;;;5.63;;
25467;SDS011;13384;24.794;110.498;2022-09-09T01:42:39;6.55;;;5.82;;
25467;SDS011;13384;24.794;110.498;2022-09-09T01:45:23;8.35;;;6.60;;
25467;SDS011;13384;24.794;110.498;2022-09-09T01:47:55;7.28;;;6.53;;
25467;SDS011;13384;24.794;110.498;2022-09-09T01:50:46;9.30;;;8.27;;
25467;SDS011;13384;24.794;110.498;2022-09-09T01:53:18;8.15;;;7.25;;
25467;SDS011;13384;24.794;110.498;2022-09-09T01:55:55;8.65;;;7.55;;
25467;SDS011;13384;24.794;110.498;2022-09-09T01:58:53;7.05;;;6.35;;
25467;SDS011;13384;24.794;110.498;2022-09-09T02:02:09;7.85;;;7.03;;
25467;SDS011;13384;24.794;110.498;2022-09-09T02:04:51;7.30;;;6.60;;
25467;SDS011;13384;24.794;110.498;2022-09-09T02:07:48;7.68;;;6.88;;
25467;SDS011;13384;24.794;110.498;2022-09-09T02:14:13;6.72;;;6.03;;
25467;SDS011;13384;24.794;110.498;2022-09-09T02:16:53;8.35;;;6.63;;
25467;SDS011;13384;24.794;110.498;2022-09-09T02:19:44;7.63;;;6.78;;
25467;SDS011;13384;24.794;110.498;2022-09-09T02:22:35;7.35;;;6.43;;
25467;SDS011;13384;24.794;110.498;2022-09-09T02:25:10;7.22;;;6.47;;
25467;SDS011;13384;24.794;110.498;2022-09-09T02:27:45;8.30;;;6.95;;
25467;SDS011;13384;24.794;110.498;2022-09-09T02:30:22;7.93;;;6.90;;
25467;SDS011;13384;24.794;110.498;2022-09-09T02:32:56;6.90;;;6.30;;
25467;SDS011;13384;24.794;110.498;2022-09-09T02:35:57;7.93;;;6.72;;
25467;SDS011;13384;24.794;110.498;2022-09-09T02:38:33;8.15;;;6.38;;
25467;SDS011;13384;24.794;110.498;2022-09-09T02:41:12;7.55;;;6.75;;
25467;SDS011;13384;24.794;110.498;2022-09-09T02:43:43;6.97;;;6.28;;
25467;SDS011;13384;24.794;110.498;2022-09-09T02:46:21;7.13;;;6.30;;
25467;SDS011;13384;24.794;110.498;2022-09-09T02:51:57;8.25;;;6.90;;
25467;SDS011;13384;24.794;110.498;2022-09-09T02:54:35;7.53;;;6.82;;
25467;SDS011;13384;24.794;110.498;2022-09-09T02:57:12;8.02;;;7.07;;
25467;SDS011;13384;24.794;110.498;2022-09-09T02:59:49;9.50;;;7.18;;
25467;SDS011;13384;24.794;110.498;2022-09-09T03:02:24;7.78;;;6.90;;
25467;SDS011;13384;24.794;110.498;2022-09-09T03:05:00;7.10;;;6.40;;
25467;SDS011;13384;24.794;110.498;2022-09-09T03:07:31;7.85;;;7.05;;
25467;SDS011;13384;24.794;110.498;2022-09-09T03:10:02;8.05;;;7.25;;
25467;SDS011;13384;24.794;110.498;2022-09-09T03:12:53;7.50;;;6.80;;
25467;SDS011;13384;24.794;110.498;2022-09-09T03:15:44;8.35;;;7.40;;
25467;SDS011;13384;24.794;110.498;2022-09-09T03:18:17;8.05;;;7.25;;
25467;SDS011;13384;24.794;110.498;2022-09-09T03:20:52;7.20;;;6.47;;
25467;SDS011;13384;24.794;110.498;2022-09-09T03:23:23;8.40;;;7.50;;
25467;SDS011;13384;24.794;110.498;2022-09-09T03:25:54;10.30;;;7.45;;
25467;SDS011;13384;24.794;110.498;2022-09-09T03:28:35;8.45;;;7.32;;
25467;SDS011;13384;24.794;110.498;2022-09-09T03:33:41;7.30;;;6.60;;
25467;SDS011;13384;24.794;110.498;2022-09-09T03:36:14;7.20;;;6.50;;
25467;SDS011;13384;24.794;110.498;2022-09-09T03:38:45;7.25;;;6.55;;
25467;SDS011;13384;24.794;110.498;2022-09-09T03:41:17;7.88;;;6.90;;
25467;SDS011;13384;24.794;110.498;2022-09-09T03:43:48;8.07;;;7.28;;
25467;SDS011;13384;24.794;110.498;2022-09-09T03:46:25;8.15;;;7.05;;
25467;SDS011;13384;24.794;110.498;2022-09-09T03:49:15;6.78;;;5.97;;
25467;SDS011;13384;24.794;110.498;2022-09-09T03:51:47;6.78;;;6.18;;
25467;SDS011;13384;24.794;110.498;2022-09-09T03:54:18;6.80;;;6.07;;
25467;SDS011;13384;24.794;110.498;2022-09-09T03:56:50;7.53;;;6.28;;
25467;SDS011;13384;24.794;110.498;2022-09-09T03:59:24;8.00;;;7.10;;
25467;SDS011;13384;24.794;110.498;2022-09-09T04:01:55;7.28;;;6.57;;
25467;SDS011;13384;24.794;110.498;2022-09-09T04:04:28;7.50;;;6.70;;
25467;SDS011;13384;24.794;110.498;2022-09-09T04:07:18;7.57;;;6.38;;
25467;SDS011;13384;24.794;110.498;2022-09-09T04:09:50;7.25;;;6.55;;
25467;SDS011;13384;24.794;110.498;2022-09-09T04:12:23;7.13;;;6.43;;
25467;SDS011;13384;24.794;110.498;2022-09-09T04:14:54;7.15;;;6.30;;
25467;SDS011;13384;24.794;110.498;2022-09-09T04:17:25;7.18;;;6.47;;
25467;SDS011;13384;24.794;110.498;2022-09-09T04:19:59;6.70;;;6.00;;
25467;SDS011;13384;24.794;110.498;2022-09-09T04:22:30;8.93;;;6.70;;
25467;SDS011;13384;24.794;110.498;2022-09-09T04:25:01;7.05;;;6.35;;
25467;SDS011;13384;24.794;110.498;2022-09-09T04:27:32;7.63;;;6.85;;
25467;SDS011;13384;24.794;110.498;2022-09-09T04:30:03;7.35;;;6.38;;
25467;SDS011;13384;24.794;110.498;2022-09-09T04:32:36;8.43;;;7.43;;
25467;SDS011;13384;24.794;110.498;2022-09-09T04:35:07;8.75;;;7.45;;
25467;SDS011;13384;24.794;110.498;2022-09-09T04:37:38;7.38;;;6.57;;
25467;SDS011;13384;24.794;110.498;2022-09-09T04:40:08;7.40;;;6.70;;
25467;SDS011;13384;24.794;110.498;2022-09-09T04:42:40;7.38;;;6.68;;
25467;SDS011;13384;24.794;110.498;2022-09-09T04:45:14;7.63;;;6.80;;
25467;SDS011;13384;24.794;110.498;2022-09-09T04:47:45;7.85;;;7.05;;
25467;SDS011;13384;24.794;110.498;2022-09-09T04:50:18;7.95;;;7.07;;
25467;SDS011;13384;24.794;110.498;2022-09-09T04:52:56;7.78;;;6.97;;
25467;SDS011;13384;24.794;110.498;2022-09-09T04:55:33;7.18;;;6.47;;
25467;SDS011;13384;24.794;110.498;2022-09-09T04:58:05;7.75;;;6.95;;
25467;SDS011;13384;24.794;110.498;2022-09-09T05:00:38;9.85;;;6.82;;
25467;SDS011;13384;24.794;110.498;2022-09-09T05:03:09;7.05;;;6.18;;
25467;SDS011;13384;24.794;110.498;2022-09-09T05:06:06;7.13;;;6.43;;
25467;SDS011;13384;24.794;110.498;2022-09-09T05:08:39;7.32;;;6.55;;
25467;SDS011;13384;24.794;110.498;2022-09-09T05:11:21;7.60;;;6.80;;
25467;SDS011;13384;24.794;110.498;2022-09-09T05:13:57;7.00;;;6.30;;
25467;SDS011;13384;24.794;110.498;2022-09-09T05:16:31;8.20;;;7.28;;
25467;SDS011;13384;24.794;110.498;2022-09-09T05:19:02;7.40;;;6.63;;
25467;SDS011;13384;24.794;110.498;2022-09-09T05:21:44;7.38;;;6.68;;
25467;SDS011;13384;24.794;110.498;2022-09-09T05:24:18;7.22;;;6.43;;
25467;SDS011;13384;24.794;110.498;2022-09-09T05:26:51;9.18;;;7.50;;
25467;SDS011;13384;24.794;110.498;2022-09-09T05:29:23;7.20;;;6.30;;
25467;SDS011;13384;24.794;110.498;2022-09-09T05:31:56;7.72;;;6.88;;
25467;SDS011;13384;24.794;110.498;2022-09-09T05:34:27;6.97;;;6.28;;
25467;SDS011;13384;24.794;110.498;2022-09-09T05:36:58;7.47;;;6.78;;
25467;SDS011;13384;24.794;110.498;2022-09-09T05:39:29;7.72;;;6.75;;
25467;SDS011;13384;24.794;110.498;2022-09-09T05:42:01;8.18;;;7.10;;
25467;SDS011;13384;24.794;110.498;2022-09-09T05:44:33;7.25;;;6.47;;
25467;SDS011;13384;24.794;110.498;2022-09-09T05:47:04;7.28;;;6.57;;
25467;SDS011;13384;24.794;110.498;2022-09-09T05:49:35;7.55;;;6.57;;
25467;SDS011;13384;24.794;110.498;2022-09-09T05:52:10;10.60;;;7.10;;
25467;SDS011;13384;24.794;110.498;2022-09-09T05:55:01;7.53;;;6.72;;
25467;SDS011;13384;24.794;110.498;2022-09-09T05:57:34;9.57;;;7.88;;
25467;SDS011;13384;24.794;110.498;2022-09-09T06:00:20;8.43;;;7.60;;
25467;SDS011;13384;24.794;110.498;2022-09-09T06:02:51;8.13;;;7.22;;
25467;SDS011;13384;24.794;110.498;2022-09-09T06:05:22;12.15;;;7.47;;
25467;SDS011;13384;24.794;110.498;2022-09-09T06:07:56;9.48;;;7.20;;
25467;SDS011;13384;24.794;110.498;2022-09-09T06:10:28;8.40;;;7.05;;
25467;SDS011;13384;24.794;110.498;2022-09-09T06:12:59;8.00;;;7.20;;
25467;SDS011;13384;24.794;110.498;2022-09-09T06:15:30;8.70;;;7.78;;
25467;SDS011;13384;24.794;110.498;2022-09-09T06:18:03;8.55;;;7.03;;
25467;SDS011;13384;24.794;110.498;2022-09-09T06:20:53;7.90;;;6.95;;
25467;SDS011;13384;24.794;110.498;2022-09-09T06:23:31;9.02;;;7.45;;
25467;SDS011;13384;24.794;110.498;2022-09-09T06:28:36;7.78;;;6.75;;
25467;SDS011;13384;24.794;110.498;2022-09-09T06:31:08;7.82;;;6.82;;
25467;SDS011;13384;24.794;110.498;2022-09-09T06:33:41;7.88;;;7.05;;
25467;SDS011;13384;24.794;110.498;2022-09-09T06:36:13;8.18;;;7.10;;
25467;SDS011;13384;24.794;110.498;2022-09-09T06:38:46;12.60;;;7.97;;
25467;SDS011;13384;24.794;110.498;2022-09-09T06:42:04;10.82;;;7.32;;
25467;SDS011;13384;24.794;110.498;2022-09-09T06:45:06;11.02;;;7.50;;
25467;SDS011;13384;24.794;110.498;2022-09-09T06:47:45;10.68;;;7.70;;
25467;SDS011;13384;24.794;110.498;2022-09-09T06:50:16;11.40;;;7.50;;
25467;SDS011;13384;24.794;110.498;2022-09-09T06:52:49;10.73;;;7.63;;
25467;SDS011;13384;24.794;110.498;2022-09-09T06:55:21;10.13;;;7.80;;
25467;SDS011;13384;24.794;110.498;2022-09-09T06:58:09;10.15;;;8.18;;
25467;SDS011;13384;24.794;110.498;2022-09-09T07:00:40;11.85;;;8.02;;
25467;SDS011;13384;24.794;110.498;2022-09-09T07:03:11;11.75;;;7.70;;
25467;SDS011;13384;24.794;110.498;2022-09-09T07:05:42;9.98;;;8.15;;
25467;SDS011;13384;24.794;110.498;2022-09-09T07:08:37;12.30;;;8.38;;
25467;SDS011;13384;24.794;110.498;2022-09-09T07:11:58;14.23;;;8.68;;
25467;SDS011;13384;24.794;110.498;2022-09-09T07:14:32;12.82;;;7.97;;
25467;SDS011;13384;24.794;110.498;2022-09-09T07:17:08;10.23;;;7.90;;
25467;SDS011;13384;24.794;110.498;2022-09-09T07:19:40;13.02;;;9.35;;
25467;SDS011;13384;24.794;110.498;2022-09-09T07:22:12;13.77;;;8.02;;
25467;SDS011;13384;24.794;110.498;2022-09-09T07:25:43;11.73;;;8.93;;
25467;SDS011;13384;24.794;110.498;2022-09-09T07:28:16;12.15;;;8.85;;
25467;SDS011;13384;24.794;110.498;2022-09-09T07:30:57;11.48;;;9.15;;
25467;SDS011;13384;24.794;110.498;2022-09-09T07:33:33;11.63;;;9.05;;
25467;SDS011;13384;24.794;110.498;2022-09-09T07:36:07;14.38;;;9.30;;
25467;SDS011;13384;24.794;110.498;2022-09-09T07:38:57;9.70;;;8.70;;
25467;SDS011;13384;24.794;110.498;2022-09-09T07:41:34;13.65;;;8.35;;
25467;SDS011;13384;24.794;110.498;2022-09-09T07:44:28;13.18;;;8.73;;
25467;SDS011;13384;24.794;110.498;2022-09-09T07:47:09;9.77;;;8.77;;
25467;SDS011;13384;24.794;110.498;2022-09-09T07:49:44;12.45;;;8.77;;
25467;SDS011;13384;24.794;110.498;2022-09-09T07:52:18;11.60;;;8.77;;
25467;SDS011;13384;24.794;110.498;2022-09-09T07:54:53;12.48;;;8.88;;
25467;SDS011;13384;24.794;110.498;2022-09-09T07:57:29;12.07;;;8.75;;
25467;SDS011;13384;24.794;110.498;2022-09-09T08:00:00;15.68;;;9.48;;
25467;SDS011;13384;24.794;110.498;2022-09-09T08:02:43;9.80;;;8.40;;
25467;SDS011;13384;24.794;110.498;2022-09-09T08:05:16;10.80;;;7.85;;
25467;SDS011;13384;24.794;110.498;2022-09-09T08:07:48;10.45;;;8.82;;
25467;SDS011;13384;24.794;110.498;2022-09-09T08:10:19;10.07;;;8.77;;
25467;SDS011;13384;24.794;110.498;2022-09-09T08:12:52;11.43;;;8.43;;
25467;SDS011;13384;24.794;110.498;2022-09-09T08:15:44;20.75;;;9.50;;
25467;SDS011;13384;24.794;110.498;2022-09-09T08:18:35;16.52;;;9.23;;
25467;SDS011;13384;24.794;110.498;2022-09-09T08:21:08;13.27;;;9.52;;
25467;SDS011;13384;24.794;110.498;2022-09-09T08:23:43;12.85;;;9.13;;
25467;SDS011;13384;24.794;110.498;2022-09-09T08:26:22;14.75;;;9.23;;
25467;SDS011;13384;24.794;110.498;2022-09-09T08:28:57;15.80;;;9.10;;
25467;SDS011;13384;24.794;110.498;2022-09-09T08:31:36;14.65;;;8.80;;
25467;SDS011;13384;24.794;110.498;2022-09-09T08:34:09;13.50;;;8.38;;
25467;SDS011;13384;24.794;110.498;2022-09-09T08:37:19;13.30;;;8.70;;
25467;SDS011;13384;24.794;110.498;2022-09-09T08:39:50;12.70;;;9.00;;
25467;SDS011;13384;24.794;110.498;2022-09-09T08:42:41;10.43;;;8.75;;
25467;SDS011;13384;24.794;110.498;2022-09-09T08:45:24;10.40;;;8.60;;
25467;SDS011;13384;24.794;110.498;2022-09-09T08:48:09;14.20;;;8.30;;
25467;SDS011;13384;24.794;110.498;2022-09-09T08:51:16;10.85;;;9.18;;
25467;SDS011;13384;24.794;110.498;2022-09-09T08:53:48;13.90;;;8.35;;
25467;SDS011;13384;24.794;110.498;2022-09-09T08:56:27;12.20;;;8.65;;
25467;SDS011;13384;24.794;110.498;2022-09-09T08:59:03;9.55;;;8.13;;
25467;SDS011;13384;24.794;110.498;2022-09-09T09:07:55;11.43;;;8.57;;
25467;SDS011;13384;24.794;110.498;2022-09-09T09:10:44;11.90;;;8.30;;
25467;SDS011;13384;24.794;110.498;2022-09-09T09:14:05;11.32;;;8.35;;
25467;SDS011;13384;24.794;110.498;2022-09-09T09:19:20;11.40;;;8.57;;
25467;SDS011;13384;24.794;110.498;2022-09-09T09:22:04;12.60;;;8.90;;
25467;SDS011;13384;24.794;110.498;2022-09-09T09:28:17;10.63;;;8.05;;
25467;SDS011;13384;24.794;110.498;2022-09-09T09:31:00;9.60;;;8.23;;
25467;SDS011;13384;24.794;110.498;2022-09-09T09:33:47;10.27;;;8.77;;
25467;SDS011;13384;24.794;110.498;2022-09-09T09:36:40;9.55;;;7.80;;
25467;SDS011;13384;24.794;110.498;2022-09-09T09:39:25;9.98;;;8.57;;
25467;SDS011;13384;24.794;110.498;2022-09-09T09:42:18;10.13;;;8.52;;
25467;SDS011;13384;24.794;110.498;2022-09-09T09:44:53;10.55;;;8.40;;
25467;SDS011;13384;24.794;110.498;2022-09-09T09:47:42;9.93;;;8.35;;
25467;SDS011;13384;24.794;110.498;2022-09-09T09:50:18;9.73;;;7.63;;
25467;SDS011;13384;24.794;110.498;2022-09-09T09:52:56;8.32;;;7.35;;
25467;SDS011;13384;24.794;110.498;2022-09-09T09:55:44;10.00;;;8.63;;
25467;SDS011;13384;24.794;110.498;2022-09-09T09:58:59;9.98;;;8.38;;
25467;SDS011;13384;24.794;110.498;2022-09-09T10:02:20;12.48;;;8.38;;
25467;SDS011;13384;24.794;110.498;2022-09-09T10:05:11;11.88;;;8.52;;
25467;SDS011;13384;24.794;110.498;2022-09-09T10:08:00;10.20;;;7.53;;
25467;SDS011;13384;24.794;110.498;2022-09-09T10:13:59;8.85;;;7.50;;
25467;SDS011;13384;24.794;110.498;2022-09-09T10:34:45;10.75;;;8.27;;
25467;SDS011;13384;24.794;110.498;2022-09-09T10:40:32;9.93;;;7.82;;
25467;SDS011;13384;24.794;110.498;2022-09-09T10:47:14;9.90;;;8.00;;
25467;SDS011;13384;24.794;110.498;2022-09-09T10:55:44;10.18;;;7.78;;
25467;SDS011;13384;24.794;110.498;2022-09-09T10:59:22;8.75;;;7.63;;
25467;SDS011;13384;24.794;110.498;2022-09-09T11:02:30;9.10;;;7.15;;
25467;SDS011;13384;24.794;110.498;2022-09-09T11:04:51;8.65;;;7.25;;
25467;SDS011;13384;24.794;110.498;2022-09-09T11:07:47;9.95;;;8.18;;
25467;SDS011;13384;24.794;110.498;2022-09-09T11:11:22;10.05;;;7.90;;
25467;SDS011;13384;24.794;110.498;2022-09-09T11:16:59;9.20;;;7.40;;
25467;SDS011;13384;24.794;110.498;2022-09-09T11:19:40;10.07;;;8.00;;
25467;SDS011;13384;24.794;110.498;2022-09-09T11:24:59;8.80;;;7.90;;
25467;SDS011;13384;24.794;110.498;2022-09-09T11:36:49;8.95;;;7.32;;
25467;SDS011;13384;24.794;110.498;2022-09-09T11:44:43;10.68;;;8.10;;
25467;SDS011;13384;24.794;110.498;2022-09-09T11:47:21;9.70;;;7.72;;
25467;SDS011;13384;24.794;110.498;2022-09-09T11:50:22;8.75;;;7.13;;
25467;SDS011;13384;24.794;110.498;2022-09-09T11:53:14;9.93;;;7.68;;
25467;SDS011;13384;24.794;110.498;2022-09-09T11:56:05;8.88;;;7.88;;
25467;SDS011;13384;24.794;110.498;2022-09-09T11:58:43;10.13;;;7.68;;
25467;SDS011;13384;24.794;110.498;2022-09-09T12:12:23;10.55;;;7.50;;
25467;SDS011;13384;24.794;110.498;2022-09-09T12:17:52;8.32;;;7.13;;
25467;SDS011;13384;24.794;110.498;2022-09-09T12:20:54;9.93;;;6.90;;
25467;SDS011;13384;24.794;110.498;2022-09-09T12:26:58;8.65;;;7.57;;
25467;SDS011;13384;24.794;110.498;2022-09-09T12:29:50;9.85;;;7.68;;
25467;SDS011;13384;24.794;110.498;2022-09-09T12:33:12;9.13;;;7.80;;
25467;SDS011;13384;24.794;110.498;2022-09-09T12:35:51;9.32;;;7.40;;
25467;SDS011;13384;24.794;110.498;2022-09-09T12:38:36;9.20;;;7.50;;
25467;SDS011;13384;24.794;110.498;2022-09-09T12:41:22;8.20;;;7.28;;
25467;SDS011;13384;24.794;110.498;2022-09-09T12:44:04;9.35;;;7.57;;
25467;SDS011;13384;24.794;110.498;2022-09-09T12:46:44;8.77;;;7.57;;
25467;SDS011;13384;24.794;110.498;2022-09-09T12:49:24;9.70;;;7.57;;
25467;SDS011;13384;24.794;110.498;2022-09-09T12:51:57;8.07;;;6.88;;
25467;SDS011;13384;24.794;110.498;2022-09-09T12:54:29;8.57;;;7.68;;
25467;SDS011;13384;24.794;110.498;2022-09-09T12:56:59;7.78;;;6.97;;
25467;SDS011;13384;24.794;110.498;2022-09-09T12:59:38;8.52;;;7.07;;
25467;SDS011;13384;24.794;110.498;2022-09-09T13:02:21;8.57;;;7.68;;
25467;SDS011;13384;24.794;110.498;2022-09-09T13:05:21;8.98;;;7.60;;
25467;SDS011;13384;24.794;110.498;2022-09-09T13:08:04;10.35;;;7.85;;
25467;SDS011;13384;24.794;110.498;2022-09-09T13:11:01;8.48;;;7.65;;
25467;SDS011;13384;24.794;110.498;2022-09-09T13:13:36;9.07;;;7.43;;
25467;SDS011;13384;24.794;110.498;2022-09-09T13:19:19;9.20;;;7.60;;
25467;SDS011;13384;24.794;110.498;2022-09-09T13:21:50;8.27;;;7.40;;
25467;SDS011;13384;24.794;110.498;2022-09-09T13:24:42;8.27;;;6.97;;
25467;SDS011;13384;24.794;110.498;2022-09-09T13:27:59;8.90;;;7.85;;
25467;SDS011;13384;24.794;110.498;2022-09-09T13:30:36;8.73;;;7.50;;
25467;SDS011;13384;24.794;110.498;2022-09-09T13:36:07;8.68;;;7.57;;
25467;SDS011;13384;24.794;110.498;2022-09-09T13:41:29;9.38;;;7.47;;
25467;SDS011;13384;24.794;110.498;2022-09-09T13:44:14;8.65;;;7.72;;
25467;SDS011;13384;24.794;110.498;2022-09-09T13:47:15;8.23;;;7.13;;
25467;SDS011;13384;24.794;110.498;2022-09-09T13:49:49;10.32;;;8.25;;
25467;SDS011;13384;24.794;110.498;2022-09-09T13:52:23;9.52;;;7.85;;
25467;SDS011;13384;24.794;110.498;2022-09-09T13:55:09;10.50;;;7.70;;
25467;SDS011;13384;24.794;110.498;2022-09-09T13:57:49;10.13;;;7.90;;
25467;SDS011;13384;24.794;110.498;2022-09-09T14:00:25;8.30;;;7.25;;
25467;SDS011;13384;24.794;110.498;2022-09-09T14:05:33;11.38;;;7.93;;
25467;SDS011;13384;24.794;110.498;2022-09-09T14:08:11;10.07;;;7.78;;
25467;SDS011;13384;24.794;110.498;2022-09-09T14:10:55;11.02;;;7.78;;
25467;SDS011;13384;24.794;110.498;2022-09-09T14:13:27;8.10;;;7.30;;
25467;SDS011;13384;24.794;110.498;2022-09-09T14:15:58;9.68;;;8.27;;
25467;SDS011;13384;24.794;110.498;2022-09-09T14:18:30;9.80;;;8.80;;
25467;SDS011;13384;24.794;110.498;2022-09-09T14:21:01;10.35;;;8.68;;
25467;SDS011;13384;24.794;110.498;2022-09-09T14:23:32;12.15;;;9.20;;
25467;SDS011;13384;24.794;110.498;2022-09-09T14:26:14;11.38;;;9.27;;
25467;SDS011;13384;24.794;110.498;2022-09-09T14:29:06;8.65;;;7.65;;
25467;SDS011;13384;24.794;110.498;2022-09-09T14:31:38;12.05;;;9.35;;
25467;SDS011;13384;24.794;110.498;2022-09-09T14:34:10;8.68;;;7.40;;
25467;SDS011;13384;24.794;110.498;2022-09-09T14:37:02;8.52;;;7.57;;
25467;SDS011;13384;24.794;110.498;2022-09-09T14:39:35;9.40;;;8.02;;
25467;SDS011;13384;24.794;110.498;2022-09-09T14:42:06;9.50;;;8.45;;
25467;SDS011;13384;24.794;110.498;2022-09-09T14:44:40;9.65;;;8.25;;
25467;SDS011;13384;24.794;110.498;2022-09-09T14:47:11;8.82;;;7.63;;
25467;SDS011;13384;24.794;110.498;2022-09-09T14:49:43;9.20;;;7.70;;
25467;SDS011;13384;24.794;110.498;2022-09-09T14:52:34;10.02;;;7.88;;
25467;SDS011;13384;24.794;110.498;2022-09-09T14:55:06;12.07;;;8.98;;
25467;SDS011;13384;24.794;110.498;2022-09-09T14:57:39;8.63;;;7.73;;
25467;SDS011;13384;24.794;110.498;2022-09-09T15:00:10;8.88;;;7.97;;
25467;SDS011;13384;24.794;110.498;2022-09-09T15:02:44;10.55;;;8.32;;
25467;SDS011;13384;24.794;110.498;2022-09-09T15:05:19;11.18;;;9.02;;
25467;SDS011;13384;24.794;110.498;2022-09-09T15:07:52;10.05;;;8.48;;
25467;SDS011;13384;24.794;110.498;2022-09-09T15:10:43;10.90;;;9.43;;
25467;SDS011;13384;24.794;110.498;2022-09-09T15:13:17;11.90;;;8.95;;
25467;SDS011;13384;24.794;110.498;2022-09-09T15:15:48;9.65;;;8.63;;
25467;SDS011;13384;24.794;110.498;2022-09-09T15:18:20;10.32;;;8.27;;
25467;SDS011;13384;24.794;110.498;2022-09-09T15:20:52;10.32;;;8.40;;
25467;SDS011;13384;24.794;110.498;2022-09-09T15:23:30;10.05;;;8.52;;
25467;SDS011;13384;24.794;110.498;2022-09-09T15:26:24;8.18;;;7.03;;
25467;SDS011;13384;24.794;110.498;2022-09-09T15:28:57;9.85;;;8.68;;
25467;SDS011;13384;24.794;110.498;2022-09-09T15:31:50;8.40;;;7.50;;
25467;SDS011;13384;24.794;110.498;2022-09-09T15:34:26;9.02;;;7.97;;
25467;SDS011;13384;24.794;110.498;2022-09-09T15:37:00;8.73;;;7.82;;
25467;SDS011;13384;24.794;110.498;2022-09-09T15:40:27;11.68;;;9.45;;
25467;SDS011;13384;24.794;110.498;2022-09-09T15:43:01;10.02;;;8.40;;
25467;SDS011;13384;24.794;110.498;2022-09-09T15:45:56;10.75;;;8.00;;
25467;SDS011;13384;24.794;110.498;2022-09-09T15:48:35;8.98;;;7.68;;
25467;SDS011;13384;24.794;110.498;2022-09-09T15:51:08;8.55;;;7.57;;
25467;SDS011;13384;24.794;110.498;2022-09-09T15:53:56;8.40;;;7.53;;
25467;SDS011;13384;24.794;110.498;2022-09-09T15:56:29;9.15;;;7.85;;
25467;SDS011;13384;24.794;110.498;2022-09-09T15:59:03;8.40;;;7.47;;
25467;SDS011;13384;24.794;110.498;2022-09-09T16:01:55;10.18;;;8.52;;
25467;SDS011;13384;24.794;110.498;2022-09-09T16:04:32;8.32;;;7.50;;
25467;SDS011;13384;24.794;110.498;2022-09-09T16:07:24;10.23;;;7.65;;
25467;SDS011;13384;24.794;110.498;2022-09-09T16:10:16;10.85;;;8.25;;
25467;SDS011;13384;24.794;110.498;2022-09-09T16:12:47;10.32;;;8.20;;
25467;SDS011;13384;24.794;110.498;2022-09-09T16:15:39;8.50;;;7.53;;
25467;SDS011;13384;24.794;110.498;2022-09-09T16:18:34;8.95;;;7.72;;
25467;SDS011;13384;24.794;110.498;2022-09-09T16:21:06;9.20;;;8.00;;
25467;SDS011;13384;24.794;110.498;2022-09-09T16:23:40;10.23;;;8.00;;
25467;SDS011;13384;24.794;110.498;2022-09-09T16:26:37;9.60;;;8.05;;
25467;SDS011;13384;24.794;110.498;2022-09-09T16:29:16;8.60;;;7.70;;
25467;SDS011;13384;24.794;110.498;2022-09-09T16:31:51;9.43;;;7.90;;
25467;SDS011;13384;24.794;110.498;2022-09-09T16:34:50;8.73;;;7.82;;
25467;SDS011;13384;24.794;110.498;2022-09-09T16:37:23;9.47;;;8.27;;
25467;SDS011;13384;24.794;110.498;2022-09-09T16:40:18;7.97;;;7.13;;
25467;SDS011;13384;24.794;110.498;2022-09-09T16:42:51;9.05;;;7.55;;
25467;SDS011;13384;24.794;110.498;2022-09-09T16:45:29;8.38;;;7.18;;
25467;SDS011;13384;24.794;110.498;2022-09-09T16:48:21;9.75;;;8.10;;
25467;SDS011;13384;24.794;110.498;2022-09-09T16:50:52;8.82;;;7.47;;
25467;SDS011;13384;24.794;110.498;2022-09-09T16:53:23;9.27;;;7.28;;
25467;SDS011;13384;24.794;110.498;2022-09-09T16:55:56;8.97;;;7.80;;
25467;SDS011;13384;24.794;110.498;2022-09-09T16:58:28;8.60;;;7.43;;
25467;SDS011;13384;24.794;110.498;2022-09-09T17:01:03;8.55;;;7.65;;
25467;SDS011;13384;24.794;110.498;2022-09-09T17:03:58;8.50;;;7.50;;
25467;SDS011;13384;24.794;110.498;2022-09-09T17:06:52;8.10;;;7.30;;
25467;SDS011;13384;24.794;110.498;2022-09-09T17:09:24;12.97;;;7.90;;
25467;SDS011;13384;24.794;110.498;2022-09-09T17:11:58;8.95;;;7.70;;
25467;SDS011;13384;24.794;110.498;2022-09-09T17:14:34;9.93;;;8.35;;
25467;SDS011;13384;24.794;110.498;2022-09-09T17:17:08;8.48;;;7.57;;
25467;SDS011;13384;24.794;110.498;2022-09-09T17:19:58;10.48;;;7.80;;
25467;SDS011;13384;24.794;110.498;2022-09-09T17:22:29;8.10;;;7.28;;
25467;SDS011;13384;24.794;110.498;2022-09-09T17:25:04;9.93;;;7.63;;
25467;SDS011;13384;24.794;110.498;2022-09-09T17:27:41;8.82;;;7.35;;
25467;SDS011;13384;24.794;110.498;2022-09-09T17:30:13;8.93;;;7.55;;
25467;SDS011;13384;24.794;110.498;2022-09-09T17:32:45;9.20;;;7.78;;
25467;SDS011;13384;24.794;110.498;2022-09-09T17:35:55;8.70;;;7.60;;
25467;SDS011;13384;24.794;110.498;2022-09-09T17:39:05;8.95;;;7.72;;
25467;SDS011;13384;24.794;110.498;2022-09-09T17:41:37;8.98;;;7.80;;
25467;SDS011;13384;24.794;110.498;2022-09-09T17:44:09;9.55;;;8.13;;
25467;SDS011;13384;24.794;110.498;2022-09-09T17:46:42;8.23;;;7.32;;
25467;SDS011;13384;24.794;110.498;2022-09-09T17:49:33;7.57;;;6.80;;
25467;SDS011;13384;24.794;110.498;2022-09-09T17:52:05;9.45;;;7.72;;
25467;SDS011;13384;24.794;110.498;2022-09-09T17:54:36;9.70;;;7.85;;
25467;SDS011;13384;24.794;110.498;2022-09-09T17:57:11;9.20;;;7.22;;
25467;SDS011;13384;24.794;110.498;2022-09-09T18:00:07;9.15;;;8.20;;
25467;SDS011;13384;24.794;110.498;2022-09-09T18:03:13;7.68;;;6.88;;
25467;SDS011;13384;24.794;110.498;2022-09-09T18:05:45;8.25;;;7.35;;
25467;SDS011;13384;24.794;110.498;2022-09-09T18:08:18;9.50;;;6.93;;
25467;SDS011;13384;24.794;110.498;2022-09-09T18:10:52;8.88;;;7.90;;